Time;durP1;ratioP1;P1;durP2;ratioP2;P2;SDS_P1;SDS_P2;PMS_P1;PMS_P2;Temp;Humidity;BMP_temperature;BMP_pressure;BME280_temperature;BME280_humidity;BME280_pressure;Samples;Min_cycle;Max_cycle;Signal;HPM_P1;HPM_P2
2024/03/06 00:03:28;;;;;;;48.87;26.47;;;;;;;4.41;100.00;101128.95;4740236;61;1140668;-73
2024/03/06 00:08:34;;;;;;;40.73;23.93;;;;;;;4.34;100.00;101138.43;4748994;61;1140839;-70
2024/03/06 00:13:40;;;;;;;46.63;27.83;;;;;;;4.29;100.00;101136.45;4761904;61;1142870;-73
2024/03/06 00:18:46;;;;;;;38.37;22.33;;;;;;;4.32;100.00;101139.80;4748892;61;1143096;-72
2024/03/06 00:23:51;;;;;;;58.43;27.23;;;;;;;4.32;100.00;101135.87;4748700;61;1143095;-73
2024/03/06 00:28:57;;;;;;;53.67;26.07;;;;;;;4.32;100.00;101135.87;4749209;60;1142950;-76
2024/03/06 00:34:03;;;;;;;46.77;26.77;;;;;;;4.25;100.00;101151.45;4696798;61;1141030;-73
2024/03/06 00:39:08;;;;;;;56.63;30.40;;;;;;;4.15;100.00;101151.42;4761953;59;1141090;-74
2024/03/06 00:44:16;;;;;;;58.33;29.10;;;;;;;4.12;100.00;101163.35;4751057;61;1140756;-73
2024/03/06 00:49:21;;;;;;;53.93;28.47;;;;;;;4.14;100.00;101164.97;4780029;61;1140844;-74
2024/03/06 00:54:27;;;;;;;67.27;32.57;;;;;;;4.12;100.00;101167.28;4761311;61;1140892;-73
2024/03/06 00:59:32;;;;;;;62.83;30.00;;;;;;;4.14;100.00;101165.42;4761521;60;1141155;-72
2024/03/06 01:04:38;;;;;;;61.42;29.23;;;;;;;4.21;100.00;101172.98;4703245;59;1142814;-74
2024/03/06 01:09:43;;;;;;;56.70;27.80;;;;;;;4.29;100.00;101180.96;4713802;61;1143067;-71
2024/03/06 01:14:49;;;;;;;59.30;31.70;;;;;;;4.38;100.00;101184.53;4688279;61;1143281;-72
2024/03/06 01:19:55;;;;;;;60.53;33.60;;;;;;;4.43;100.00;101195.19;4707451;60;1140853;-71
2024/03/06 01:25:00;;;;;;;63.53;32.93;;;;;;;4.40;100.00;101195.34;4688190;61;1140642;-74
2024/03/06 01:30:07;;;;;;;85.50;40.17;;;;;;;4.40;100.00;101198.42;4685190;61;1140891;-71
2024/03/06 01:35:14;;;;;;;65.80;34.23;;;;;;;4.39;100.00;101192.78;4688541;60;1141112;-72
2024/03/06 01:40:19;;;;;;;75.23;35.17;;;;;;;4.32;100.00;101193.48;4726207;60;1141019;-72
2024/03/06 01:45:25;;;;;;;60.52;32.00;;;;;;;4.28;100.00;101198.44;4723660;60;1259748;-75
2024/03/06 01:50:30;;;;;;;72.20;37.53;;;;;;;4.30;100.00;101204.92;4744592;60;1142726;-73
2024/03/06 01:55:36;;;;;;;83.10;39.07;;;;;;;4.33;100.00;101209.59;4768660;59;1142922;-75
2024/03/06 02:00:42;;;;;;;78.72;38.73;;;;;;;4.37;100.00;101201.16;4789202;59;1142598;-74
2024/03/06 02:05:52;;;;;;;71.57;36.00;;;;;;;4.37;100.00;101209.02;4758332;60;1141011;-75
2024/03/06 02:11:00;;;;;;;61.58;31.02;;;;;;;4.35;100.00;101203.83;4709402;61;1140790;-73
2024/03/06 02:16:05;;;;;;;56.63;31.05;;;;;;;4.34;100.00;101214.37;4675338;61;1140913;-71
2024/03/06 02:21:11;;;;;;;52.43;29.30;;;;;;;4.36;100.00;101211.23;4727802;61;1140908;-71
2024/03/06 02:26:18;;;;;;;51.37;27.67;;;;;;;4.38;100.00;101211.56;4699697;61;1143030;-73
2024/03/06 02:31:24;;;;;;;57.63;30.53;;;;;;;4.45;100.00;101216.08;4637515;62;1142762;-73
2024/03/06 02:36:29;;;;;;;66.27;34.27;;;;;;;4.52;100.00;101218.40;4656294;62;1143143;-75
2024/03/06 02:41:36;;;;;;;67.08;33.72;;;;;;;4.47;100.00;101219.03;4637855;62;1141045;-73
2024/03/06 02:46:42;;;;;;;70.20;37.50;;;;;;;4.31;100.00;101217.95;4637220;62;1141164;-73
2024/03/06 02:51:48;;;;;;;87.27;41.07;;;;;;;4.17;100.00;101219.83;4699364;60;1140789;-74
2024/03/06 02:56:54;;;;;;;63.70;31.33;;;;;;;4.09;100.00;101222.36;4709025;60;1141005;-75
2024/03/06 03:02:00;;;;;;;54.17;28.77;;;;;;;4.04;100.00;101219.06;4710374;60;1143007;-75
2024/03/06 03:07:05;;;;;;;55.28;28.45;;;;;;;4.04;100.00;101225.16;4708814;61;1142729;-74
2024/03/06 03:12:11;;;;;;;61.17;29.73;;;;;;;4.15;100.00;101222.95;4727206;61;1142833;-73
2024/03/06 03:17:19;;;;;;;63.43;31.43;;;;;;;4.13;100.00;101229.16;4709032;61;1143301;-75
2024/03/06 03:22:25;;;;;;;62.50;33.80;;;;;;;4.03;100.00;101232.61;4712340;60;1140632;-71
2024/03/06 03:27:30;;;;;;;54.70;30.40;;;;;;;3.96;100.00;101235.54;4758769;60;1140630;-75
2024/03/06 03:32:36;;;;;;;51.90;28.10;;;;;;;3.88;100.00;101229.28;4740138;60;1140665;-72
2024/03/06 03:37:43;;;;;;;50.98;27.20;;;;;;;3.81;100.00;101232.61;4753339;60;1140949;-74
2024/03/06 03:42:49;;;;;;;49.67;27.43;;;;;;;3.76;100.00;101226.69;4780119;60;1142970;-73
2024/03/06 03:47:54;;;;;;;44.15;24.50;;;;;;;3.74;100.00;101230.27;4874336;58;1142825;-71
2024/03/06 03:53:00;;;;;;;47.00;27.50;;;;;;;3.74;100.00;101234.19;4848888;59;1143388;-72
2024/03/06 03:58:06;;;;;;;39.30;25.23;;;;;;;3.86;100.00;101231.95;4890001;58;1149045;-72
2024/03/06 04:03:12;;;;;;;51.20;29.83;;;;;;;3.91;100.00;101240.09;4946407;58;1140765;-73
2024/03/06 04:08:18;;;;;;;57.07;31.10;;;;;;;3.96;100.00;101243.39;4926873;58;1140574;-73
2024/03/06 04:13:23;;;;;;;46.03;26.60;;;;;;;3.95;100.00;101241.23;4926964;58;1140849;-74
2024/03/06 04:18:33;;;;;;;59.67;28.27;;;;;;;3.92;100.00;101243.95;4936021;58;1141248;-73
2024/03/06 04:23:37;;;;;;;57.93;27.55;;;;;;;3.84;100.00;101253.39;4695647;61;1140826;-73
2024/03/06 04:28:42;;;;;;;55.30;29.17;;;;;;;3.75;100.00;101253.75;4689890;60;1141081;-70
2024/03/06 04:33:48;;;;;;;58.00;28.60;;;;;;;3.71;100.00;101265.23;4694573;62;1140791;-71
2024/03/06 04:38:53;;;;;;;60.23;31.53;;;;;;;3.66;100.00;101271.57;4834695;59;1143509;-74
2024/03/06 04:44:00;;;;;;;79.10;40.40;;;;;;;3.67;100.00;101274.55;4859674;59;1140778;-73
2024/03/06 04:49:06;;;;;;;80.55;35.45;;;;;;;3.69;100.00;101272.73;4768600;60;1141234;-73
2024/03/06 04:54:11;;;;;;;66.83;34.77;;;;;;;3.58;100.00;101276.21;4875381;59;1140804;-73
2024/03/06 04:59:17;;;;;;;56.27;33.07;;;;;;;3.49;100.00;101278.27;4761970;60;1140811;-76
2024/03/06 05:04:22;;;;;;;51.17;29.53;;;;;;;3.46;100.00;101281.44;4856008;58;1141013;-74
2024/03/06 05:09:28;;;;;;;65.63;31.27;;;;;;;3.38;100.00;101283.45;4875039;58;1140756;-72
2024/03/06 05:14:33;;;;;;;49.97;28.63;;;;;;;3.46;100.00;101293.20;4855482;58;1141149;-72
2024/03/06 05:19:39;;;;;;;42.37;24.30;;;;;;;3.58;100.00;101291.91;4856304;58;1140706;-74
2024/03/06 05:24:45;;;;;;;44.40;23.20;;;;;;;3.58;100.00;101299.75;4874886;58;1142863;-71
2024/03/06 05:29:51;;;;;;;44.43;23.07;;;;;;;3.57;100.00;101296.73;4855450;59;1142693;-72
2024/03/06 05:34:58;;;;;;;40.93;22.97;;;;;;;3.48;100.00;101299.24;4765833;60;1142761;-74
2024/03/06 05:40:07;;;;;;;49.00;26.00;;;;;;;3.39;100.00;101296.94;4854460;59;1141200;-75
2024/03/06 05:45:13;;;;;;;48.53;25.33;;;;;;;3.32;100.00;101310.70;4786857;60;1140995;-73
2024/03/06 05:50:18;;;;;;;52.87;26.60;;;;;;;3.28;100.00;101307.78;4768186;60;1140734;-73
2024/03/06 05:55:24;;;;;;;49.13;24.60;;;;;;;3.24;100.00;101311.84;4768386;60;1140713;-71
2024/03/06 06:00:31;;;;;;;45.98;25.00;;;;;;;3.20;100.00;101312.89;4878030;59;1140705;-75
2024/03/06 06:05:37;;;;;;;47.03;24.65;;;;;;;3.17;100.00;101326.91;4840534;59;1140923;-70
2024/03/06 06:10:43;;;;;;;47.50;26.85;;;;;;;3.16;100.00;101314.74;4775947;59;1140909;-73
2024/03/06 06:15:48;;;;;;;46.13;25.97;;;;;;;3.19;100.00;101322.48;4886644;59;1143225;-75
2024/03/06 06:20:54;;;;;;;48.60;25.70;;;;;;;3.36;100.00;101324.52;4770185;59;1142901;-73
2024/03/06 06:25:59;;;;;;;45.67;25.20;;;;;;;3.49;100.00;101320.11;4779639;58;1142597;-74
2024/03/06 06:31:06;;;;;;;49.25;25.85;;;;;;;3.49;100.00;101328.41;4779658;60;1140770;-71
2024/03/06 06:36:11;;;;;;;52.37;27.70;;;;;;;3.41;100.00;101337.81;4796589;59;1140992;-78
2024/03/06 06:41:19;;;;;;;46.80;24.57;;;;;;;3.35;100.00;101335.44;4790263;59;1141221;-74
2024/03/06 06:46:24;;;;;;;41.50;22.73;;;;;;;3.39;100.00;101336.16;4697748;60;1140825;-74
2024/03/06 06:51:30;;;;;;;46.20;26.27;;;;;;;3.42;100.00;101332.13;4733048;60;1182107;-74
2024/03/06 06:56:35;;;;;;;61.05;29.42;;;;;;;3.45;100.00;101335.95;4624552;61;1141119;-73
2024/03/06 07:01:41;;;;;;;54.03;28.73;;;;;;;3.53;100.00;101346.98;4801876;59;1147928;-72
2024/03/06 07:06:47;;;;;;;46.33;24.57;;;;;;;3.64;100.00;101337.02;4729764;61;1143147;-74
2024/03/06 07:11:53;;;;;;;52.13;26.57;;;;;;;3.67;100.00;101338.19;4710837;61;1142734;-72
2024/03/06 07:16:58;;;;;;;49.57;29.80;;;;;;;3.68;100.00;101338.59;4678471;62;1140568;-72
2024/03/06 07:22:04;;;;;;;57.67;30.80;;;;;;;3.74;100.00;101354.08;4767067;61;1141338;-74
2024/03/06 07:27:10;;;;;;;55.37;27.90;;;;;;;3.79;100.00;101354.77;4812343;61;1140651;-74
2024/03/06 07:32:15;;;;;;;54.30;28.00;;;;;;;3.88;100.00;101370.13;4719493;61;1140417;-75
2024/03/06 07:37:21;;;;;;;64.87;31.17;;;;;;;3.96;100.00;101363.77;4706385;61;1140750;-73
2024/03/06 07:42:27;;;;;;;53.47;30.20;;;;;;;4.06;100.00;101364.67;4858069;60;1142853;-77
2024/03/06 07:47:33;;;;;;;48.43;26.13;;;;;;;4.18;100.00;101372.52;4872183;60;1143006;-73
2024/03/06 07:52:39;;;;;;;44.57;23.37;;;;;;;4.27;100.00;101365.65;4854010;60;1143401;-73
2024/03/06 07:57:45;;;;;;;51.25;26.00;;;;;;;4.36;100.00;101364.43;4846685;60;1142966;-78
2024/03/06 08:02:50;;;;;;;60.92;31.00;;;;;;;4.38;100.00;101362.61;4757156;59;1142904;-74
2024/03/06 08:07:56;;;;;;;54.23;29.57;;;;;;;4.40;100.00;101373.88;4768619;60;1140811;-75
2024/03/06 08:13:03;;;;;;;60.30;31.50;;;;;;;4.42;100.00;101382.54;4769424;60;1141373;-78
2024/03/06 08:18:11;;;;;;;51.83;27.73;;;;;;;4.41;100.00;101392.61;4787100;60;1140932;-77
2024/03/06 08:23:16;;;;;;;56.70;28.47;;;;;;;4.43;100.00;101389.00;4768134;60;1143531;-76
2024/03/06 08:28:22;;;;;;;72.97;34.43;;;;;;;4.50;100.00;101381.77;4768050;60;1143020;-72
2024/03/06 08:33:27;;;;;;;78.40;34.78;;;;;;;4.59;100.00;101391.42;4846782;59;1142932;-76
2024/03/06 08:38:33;;;;;;;62.62;30.95;;;;;;;4.65;100.00;101394.28;4842071;58;1143057;-75
2024/03/06 08:43:38;;;;;;;84.97;36.13;;;;;;;4.74;100.00;101395.67;4768493;60;1143072;-74
2024/03/06 08:48:44;;;;;;;76.53;33.83;;;;;;;4.76;100.00;101394.70;4875064;59;1142914;-75
2024/03/06 08:53:50;;;;;;;83.70;37.28;;;;;;;4.77;100.00;101399.48;4856835;58;1141083;-76
2024/03/06 08:58:55;;;;;;;76.17;35.87;;;;;;;4.74;100.00;101400.91;4721808;60;1141020;-72
2024/03/06 09:04:01;;;;;;;72.17;32.90;;;;;;;4.72;100.00;101400.14;4700635;60;1143217;-74
2024/03/06 09:09:06;;;;;;;81.93;36.00;;;;;;;4.73;100.00;101400.54;4645626;60;1143051;-73
2024/03/06 09:14:12;;;;;;;67.37;32.00;;;;;;;4.81;100.00;101408.94;4717631;59;1142921;-71
2024/03/06 09:19:18;;;;;;;80.50;36.27;;;;;;;4.90;100.00;101412.50;4648635;61;1142999;-72
2024/03/06 09:24:30;;;;;;;66.20;32.85;;;;;;;4.98;100.00;101418.30;4656683;62;1142979;-73
2024/03/06 09:29:31;;;;;;;72.37;33.20;;;;;;;5.02;100.00;101415.96;4639020;62;1140954;-73
2024/03/06 09:34:37;;;;;;;77.73;36.17;;;;;;;5.04;100.00;101416.72;4651319;61;1140906;-73
2024/03/06 09:39:43;;;;;;;86.07;37.90;;;;;;;5.05;100.00;101420.20;4695665;61;1148210;-75
2024/03/06 09:44:48;;;;;;;87.60;40.03;;;;;;;5.11;100.00;101423.90;4672392;60;1142931;-76
2024/03/06 09:49:54;;;;;;;75.28;33.23;;;;;;;5.15;100.00;101421.55;4708336;60;1142928;-76
2024/03/06 09:55:01;;;;;;;68.87;33.10;;;;;;;5.20;100.00;101425.67;4719277;60;1142907;-73
2024/03/06 10:00:11;;;;;;;73.63;33.17;;;;;;;5.28;100.00;101426.23;4746861;61;1142681;-74
2024/03/06 10:05:22;;;;;;;68.77;35.53;;;;;;;5.34;100.00;101424.28;4782233;59;1142928;-73
2024/03/06 10:10:28;;;;;;;70.20;35.23;;;;;;;5.41;100.00;101421.33;4648951;61;1143090;-71
2024/03/06 10:15:36;;;;;;;77.30;37.80;;;;;;;5.41;100.00;101429.20;4703380;61;1140764;-72
2024/03/06 10:20:43;;;;;;;65.17;33.23;;;;;;;5.37;100.00;101422.82;4696007;60;1140681;-73
2024/03/06 10:25:54;;;;;;;62.67;33.85;;;;;;;5.40;100.00;101430.11;4728175;61;1142773;-70
2024/03/06 10:31:08;;;;;;;61.50;34.77;;;;;;;5.44;100.00;101428.22;4698740;60;1143210;-72
2024/03/06 10:36:13;;;;;;;60.87;31.13;;;;;;;5.52;100.00;101432.67;4714016;60;1142857;-76
2024/03/06 10:41:21;;;;;;;61.17;33.60;;;;;;;5.56;100.00;101432.95;4709004;60;1142812;-76
2024/03/06 10:46:29;;;;;;;70.60;36.70;;;;;;;5.60;100.00;101430.59;4708669;60;1142942;-72
2024/03/06 10:51:35;;;;;;;66.13;35.33;;;;;;;5.65;100.00;101436.02;4858730;59;1143023;-72
2024/03/06 10:56:42;;;;;;;75.40;35.93;;;;;;;5.67;100.00;101434.65;4728843;59;1143144;-74
2024/03/06 11:01:50;;;;;;;62.37;32.10;;;;;;;5.73;100.00;101434.86;4834727;58;1142786;-73
2024/03/06 11:06:59;;;;;;;69.37;34.63;;;;;;;5.79;100.00;101433.30;4843826;59;1142817;-73
2024/03/06 11:12:06;;;;;;;51.98;28.02;;;;;;;5.86;100.00;101432.09;4800036;59;1142961;-74
2024/03/06 11:17:13;;;;;;;66.35;34.95;;;;;;;5.92;100.00;101431.88;4799778;59;1142932;-75
2024/03/06 11:22:18;;;;;;;81.08;40.17;;;;;;;5.90;100.00;101429.77;4849432;60;1142759;-72
2024/03/06 11:27:24;;;;;;;72.30;36.40;;;;;;;5.87;100.00;101433.34;4829011;59;1140836;-73
2024/03/06 11:32:29;;;;;;;70.60;36.08;;;;;;;5.86;100.00;101429.01;4687627;60;1143171;-75
2024/03/06 11:37:38;;;;;;;58.57;31.40;;;;;;;5.89;100.00;101428.06;4804323;60;1143106;-76
2024/03/06 11:42:43;;;;;;;53.67;30.10;;;;;;;5.92;100.00;101431.88;4865265;59;1142986;-76
2024/03/06 11:48:03;;;;;;;64.00;33.63;;;;;;;5.96;100.00;101429.02;4762994;60;1143177;-74
2024/03/06 11:53:09;;;;;;;55.60;30.00;;;;;;;6.00;100.00;101429.28;4734922;61;1144910;-73
2024/03/06 11:58:14;;;;;;;61.10;31.67;;;;;;;6.06;100.00;101432.11;4784618;59;1142857;-75
2024/03/06 12:03:20;;;;;;;51.33;28.97;;;;;;;6.12;100.00;101433.59;4726564;59;1142869;-72
2024/03/06 12:08:25;;;;;;;66.80;33.43;;;;;;;6.12;100.00;101432.28;4711720;61;1143007;-75
2024/03/06 12:13:31;;;;;;;65.70;32.10;;;;;;;6.13;100.00;101432.22;4727492;61;1143164;-72
2024/03/06 12:18:37;;;;;;;74.37;36.43;;;;;;;6.10;100.00;101427.59;4708825;61;1140810;-76
2024/03/06 12:23:43;;;;;;;74.00;35.33;;;;;;;6.08;100.00;101426.80;4708397;60;1143058;-74
2024/03/06 12:28:48;;;;;;;69.72;32.35;;;;;;;6.11;100.00;101435.86;4727978;60;1143166;-75
2024/03/06 12:33:58;;;;;;;67.47;33.70;;;;;;;6.14;100.00;101435.23;4709093;61;1142779;-78
2024/03/06 12:39:12;;;;;;;76.50;33.80;;;;;;;6.15;100.00;101436.94;4708943;61;1142885;-73
2024/03/06 12:44:12;;;;;;;60.70;30.60;;;;;;;6.20;100.00;101434.97;4723825;61;1143152;-76
2024/03/06 12:49:18;;;;;;;63.63;30.87;;;;;;;6.22;100.00;101431.82;4765051;60;1143260;-76
2024/03/06 12:54:23;;;;;;;69.97;32.83;;;;;;;6.23;100.00;101435.30;4667622;60;1142903;-72
2024/03/06 12:59:29;;;;;;;59.93;27.20;;;;;;;6.24;100.00;101437.86;4645886;61;1195552;-73
2024/03/06 13:04:34;;;;;;;52.47;25.93;;;;;;;6.23;100.00;101436.61;4729626;61;1239191;-75
2024/03/06 13:09:40;;;;;;;54.50;24.93;;;;;;;6.19;100.00;101443.77;4731738;61;1142904;-73
2024/03/06 13:14:45;;;;;;;53.37;25.20;;;;;;;6.17;100.00;101440.36;4787939;61;1142682;-75
2024/03/06 13:19:51;;;;;;;49.27;23.80;;;;;;;6.16;100.00;101441.73;4728448;60;1143170;-76
2024/03/06 13:24:57;;;;;;;68.53;29.97;;;;;;;6.17;100.00;101446.92;4815771;59;1142672;-76
2024/03/06 13:30:02;;;;;;;51.23;26.07;;;;;;;6.17;100.00;101451.33;4797675;59;1142983;-71
2024/03/06 13:35:12;;;;;;;53.53;23.63;;;;;;;6.21;100.00;101439.77;4661393;61;1143048;-73
2024/03/06 13:40:17;;;;;;;47.30;25.13;;;;;;;6.23;100.00;101437.47;4793157;59;1142813;-75
2024/03/06 13:45:23;;;;;;;47.45;24.67;;;;;;;6.24;100.00;101448.38;4786828;59;1142727;-72
2024/03/06 13:50:29;;;;;;;41.17;18.53;;;;;;;6.28;100.00;101443.34;4787577;59;1142673;-72
2024/03/06 13:55:35;;;;;;;56.00;25.50;;;;;;;6.35;100.00;101445.25;4810844;59;1142930;-72
2024/03/06 14:00:40;;;;;;;54.70;26.37;;;;;;;6.30;100.00;101448.08;4735579;60;1142834;-73
2024/03/06 14:05:46;;;;;;;57.08;26.75;;;;;;;6.32;100.00;101450.64;4798484;59;1143021;-72
2024/03/06 14:10:52;;;;;;;47.10;26.57;;;;;;;6.34;100.00;101454.05;4776516;61;1142649;-74
2024/03/06 14:16:00;;;;;;;47.60;23.73;;;;;;;6.35;100.00;101451.36;4790947;59;1142885;-70
2024/03/06 14:21:05;;;;;;;45.28;24.27;;;;;;;6.35;100.00;101451.82;4840852;59;1142723;-73
2024/03/06 14:26:10;;;;;;;56.40;26.90;;;;;;;6.39;100.00;101456.48;4788894;59;1143375;-75
2024/03/06 14:31:16;;;;;;;55.85;25.95;;;;;;;6.41;100.00;101460.75;4716847;60;1142907;-76
2024/03/06 14:36:21;;;;;;;56.02;27.02;;;;;;;6.46;100.00;101461.84;4675895;62;1142804;-72
2024/03/06 14:41:27;;;;;;;50.47;25.37;;;;;;;6.45;100.00;101463.61;4566106;61;1142798;-71
2024/03/06 14:46:33;;;;;;;44.07;22.97;;;;;;;6.45;100.00;101462.75;4839038;58;1142970;-75
2024/03/06 14:51:38;;;;;;;57.23;24.23;;;;;;;6.42;100.00;101462.42;4777094;60;1142972;-73
2024/03/06 14:56:44;;;;;;;46.63;22.83;;;;;;;6.40;100.00;101468.24;4855224;59;1142683;-74
2024/03/06 15:01:51;;;;;;;54.33;28.53;;;;;;;6.41;100.00;101468.63;4803316;59;1142726;-76
2024/03/06 15:06:57;;;;;;;54.27;26.00;;;;;;;6.39;100.00;101473.56;4749209;60;1142687;-75
2024/03/06 15:12:04;;;;;;;57.97;27.00;;;;;;;6.35;100.00;101471.06;4737104;61;1142800;-73
2024/03/06 15:17:10;;;;;;;45.77;23.67;;;;;;;6.35;100.00;101479.41;4845453;59;1142906;-75
2024/03/06 15:22:15;;;;;;;40.13;22.20;;;;;;;6.35;100.00;101485.52;4704397;61;1143226;-69
2024/03/06 15:27:21;;;;;;;39.88;21.57;;;;;;;6.35;100.00;101493.86;4840912;59;1142989;-75
2024/03/06 15:32:26;;;;;;;40.07;23.67;;;;;;;6.33;100.00;101495.70;4694136;61;1142878;-79
2024/03/06 15:37:32;;;;;;;36.77;21.97;;;;;;;6.34;100.00;101492.15;4874298;59;1143121;-73
2024/03/06 15:42:38;;;;;;;41.67;21.83;;;;;;;6.33;100.00;101500.48;4759493;60;1142854;-74
2024/03/06 15:47:45;;;;;;;38.20;20.00;;;;;;;6.31;100.00;101495.77;4887457;59;1140860;-74
2024/03/06 15:52:50;;;;;;;33.60;20.33;;;;;;;6.31;100.00;101508.04;4900436;59;1142714;-73
2024/03/06 15:57:56;;;;;;;37.85;20.10;;;;;;;6.30;100.00;101506.33;4694060;60;1142966;-75
2024/03/06 16:03:02;;;;;;;37.97;20.37;;;;;;;6.30;100.00;101499.77;4837355;59;1142560;-74
2024/03/06 16:08:08;;;;;;;54.10;27.58;;;;;;;6.34;100.00;101512.70;4685054;61;1143015;-74
2024/03/06 16:13:14;;;;;;;59.20;27.57;;;;;;;6.33;100.00;101514.09;4891383;59;1142622;-74
2024/03/06 16:18:19;;;;;;;43.42;23.65;;;;;;;6.30;100.00;101515.06;4886518;59;1140977;-74
2024/03/06 16:23:25;;;;;;;55.90;27.65;;;;;;;6.27;100.00;101523.08;4886293;59;1142748;-73
2024/03/06 16:28:30;;;;;;;47.97;23.73;;;;;;;6.26;100.00;101523.99;4905622;59;1142884;-73
2024/03/06 16:33:36;;;;;;;42.90;22.60;;;;;;;6.26;100.00;101525.80;4899177;59;1142976;-75
2024/03/06 16:38:42;;;;;;;38.83;21.17;;;;;;;6.22;100.00;101534.73;4727252;59;1143087;-72
2024/03/06 16:43:47;;;;;;;40.87;21.47;;;;;;;6.21;100.00;101540.44;4704129;61;1143065;-72
2024/03/06 16:48:53;;;;;;;38.63;21.87;;;;;;;6.22;100.00;101550.03;4770758;60;1142836;-74
2024/03/06 16:53:58;;;;;;;44.70;22.67;;;;;;;6.27;100.00;101556.38;4771141;60;1142752;-70
2024/03/06 16:59:05;;;;;;;63.33;29.37;;;;;;;6.27;100.00;101554.60;4771753;59;1142856;-74
2024/03/06 17:04:11;;;;;;;67.57;30.03;;;;;;;6.28;100.00;101559.40;4873779;58;1145085;-73
2024/03/06 17:09:16;;;;;;;62.75;30.00;;;;;;;6.24;100.00;101561.78;4806493;59;1141018;-74
2024/03/06 17:14:22;;;;;;;57.70;27.30;;;;;;;6.18;100.00;101559.41;4766971;60;1141043;-75
2024/03/06 17:19:28;;;;;;;75.03;33.53;;;;;;;6.09;100.00;101565.92;4864523;59;1140779;-73
2024/03/06 17:24:34;;;;;;;80.30;35.40;;;;;;;6.02;100.00;101564.91;4778802;59;1141009;-71
2024/03/06 17:29:40;;;;;;;77.33;34.63;;;;;;;5.96;100.00;101570.81;4775404;59;1142759;-75
2024/03/06 17:34:45;;;;;;;79.03;38.07;;;;;;;5.93;100.00;101580.15;4794554;59;1142925;-73
2024/03/06 17:39:51;;;;;;;94.20;40.57;;;;;;;5.90;100.00;101584.20;4690342;61;1143100;-74
2024/03/06 17:44:56;;;;;;;88.10;37.80;;;;;;;5.90;100.00;101582.89;4776992;59;1142815;-74
2024/03/06 17:50:08;;;;;;;106.93;43.27;;;;;;;5.93;100.00;101587.17;4784762;59;1142915;-75
2024/03/06 17:55:13;;;;;;;103.37;43.97;;;;;;;5.92;100.00;101588.94;4869948;59;1144886;-72
2024/03/06 18:00:20;;;;;;;146.62;60.43;;;;;;;5.91;100.00;101587.69;4850604;59;1143217;-73
2024/03/06 18:05:25;;;;;;;148.80;64.80;;;;;;;5.89;100.00;101592.14;4767352;60;1143007;-73
2024/03/06 18:10:31;;;;;;;182.27;75.60;;;;;;;5.86;100.00;101594.40;4874826;59;1143097;-75
2024/03/06 18:15:36;;;;;;;213.67;92.47;;;;;;;5.82;100.00;101607.70;4768141;59;1142769;-71
2024/03/06 18:20:43;;;;;;;132.73;64.60;;;;;;;5.73;100.00;101608.09;4767838;60;1142896;-69
2024/03/06 18:25:50;;;;;;;79.32;41.55;;;;;;;5.67;100.00;101610.48;4754033;59;1145230;-74
2024/03/06 18:30:56;;;;;;;55.10;28.77;;;;;;;5.64;100.00;101607.55;4826873;58;1143109;-73
2024/03/06 18:36:02;;;;;;;55.43;29.20;;;;;;;5.69;100.00;101613.05;4886236;57;1142791;-75
2024/03/06 18:41:08;;;;;;;55.67;29.32;;;;;;;5.69;100.00;101607.34;4886213;57;1143149;-74
2024/03/06 18:46:14;;;;;;;74.10;33.97;;;;;;;5.70;100.00;101614.77;4906125;59;1140718;-74
2024/03/06 18:51:21;;;;;;;76.35;32.65;;;;;;;5.66;100.00;101614.88;4860811;58;1140979;-71
2024/03/06 18:56:26;;;;;;;68.70;31.67;;;;;;;5.57;100.00;101613.09;4763644;60;1140713;-71
2024/03/06 19:01:32;;;;;;;40.90;20.57;;;;;;;5.44;100.00;101617.11;4874657;59;1140665;-73
2024/03/06 19:06:38;;;;;;;44.97;21.10;;;;;;;5.32;100.00;101627.63;4855682;59;1140614;-74
2024/03/06 19:11:44;;;;;;;39.17;20.43;;;;;;;5.26;100.00;101635.26;4813539;58;1143294;-73
2024/03/06 19:16:50;;;;;;;44.30;20.40;;;;;;;5.25;100.00;101635.31;4820224;59;1142725;-74
2024/03/06 19:21:55;;;;;;;48.43;24.17;;;;;;;5.25;100.00;101644.49;4717699;58;1142975;-73
2024/03/06 19:27:01;;;;;;;47.70;21.65;;;;;;;5.20;100.00;101645.11;4744531;59;1140682;-73
2024/03/06 19:32:10;;;;;;;42.27;21.27;;;;;;;5.14;100.00;101654.53;4779878;60;1140720;-72
2024/03/06 19:37:14;;;;;;;50.33;23.70;;;;;;;5.06;100.00;101657.42;4849154;59;1140715;-74
2024/03/06 19:42:20;;;;;;;43.35;21.17;;;;;;;5.02;100.00;101657.16;4805493;59;1140874;-73
2024/03/06 19:47:25;;;;;;;43.73;20.33;;;;;;;4.96;100.00;101665.23;4670019;61;1140743;-71
2024/03/06 19:52:31;;;;;;;36.53;18.83;;;;;;;4.93;100.00;101681.06;4634772;60;1141010;-74
2024/03/06 19:57:37;;;;;;;38.17;17.87;;;;;;;4.84;100.00;101678.78;4925444;58;1140794;-73
2024/03/06 20:02:43;;;;;;;33.30;15.93;;;;;;;4.72;100.00;101680.53;4835445;58;1140525;-72
2024/03/06 20:07:49;;;;;;;40.03;17.93;;;;;;;4.64;100.00;101687.33;4834214;58;1140997;-74
2024/03/06 20:13:01;;;;;;;33.70;16.97;;;;;;;4.62;100.00;101695.69;4772918;60;1141051;-76
2024/03/06 20:18:05;;;;;;;39.17;18.43;;;;;;;4.54;100.00;101692.04;4820893;59;1140665;-75
2024/03/06 20:23:13;;;;;;;36.40;15.87;;;;;;;4.50;100.00;101689.56;4750016;60;1140931;-71
2024/03/06 20:28:19;;;;;;;28.73;15.15;;;;;;;4.39;100.00;101693.86;4719440;61;1140883;-75
2024/03/06 20:33:28;;;;;;;31.87;16.17;;;;;;;4.31;100.00;101700.24;4853953;58;1141127;-71
2024/03/06 20:38:34;;;;;;;25.67;13.97;;;;;;;4.18;100.00;101695.41;4846691;58;1140691;-73
2024/03/06 20:43:40;;;;;;;30.77;16.23;;;;;;;4.13;100.00;101695.14;4749267;60;1141015;-73
2024/03/06 20:48:47;;;;;;;29.87;15.37;;;;;;;4.12;100.00;101702.62;4683938;59;1140829;-72
2024/03/06 20:54:04;;;;;;;33.13;16.47;;;;;;;4.07;100.00;101709.76;4810187;58;1140762;-73
2024/03/06 20:59:06;;;;;;;32.17;16.67;;;;;;;3.98;100.00;101704.80;4790956;59;1140771;-71
2024/03/06 21:04:15;;;;;;;40.87;19.77;;;;;;;3.95;100.00;101709.70;4875223;58;1140918;-72
2024/03/06 21:09:19;;;;;;;42.30;18.55;;;;;;;3.86;100.00;101716.05;4836580;58;1140611;-73
2024/03/06 21:14:25;;;;;;;34.50;16.53;;;;;;;3.76;100.00;101719.01;4808484;60;1140833;-71
2024/03/06 21:19:30;;;;;;;33.00;16.30;;;;;;;3.72;100.00;101722.16;4761069;61;1141057;-74
2024/03/06 21:24:37;;;;;;;32.40;16.90;;;;;;;3.68;100.00;101734.92;4732978;61;1140871;-73
2024/03/06 21:29:51;;;;;;;37.00;16.83;;;;;;;3.63;100.00;101737.29;4736815;60;1141487;-73
2024/03/06 21:34:53;;;;;;;35.10;18.50;;;;;;;3.57;100.00;101737.00;4697173;60;1141285;-72
2024/03/06 21:40:00;;;;;;;36.87;16.07;;;;;;;3.46;100.00;101743.86;4684108;61;1140896;-71
2024/03/06 21:45:08;;;;;;;28.85;14.95;;;;;;;3.43;100.00;101751.79;4718847;61;1140943;-72
2024/03/06 21:50:15;;;;;;;34.72;16.06;;;;;;;3.35;100.00;101762.07;4762804;61;1140867;-73
2024/03/06 21:55:20;;;;;;;32.50;16.32;;;;;;;3.30;100.00;101766.11;4754163;61;1140961;-70
2024/03/06 22:00:26;;;;;;;46.77;21.05;;;;;;;3.22;100.00;101754.99;4748530;60;1140928;-74
2024/03/06 22:05:31;;;;;;;43.10;19.35;;;;;;;3.11;100.00;101764.44;4748703;61;1140880;-72
2024/03/06 22:10:37;;;;;;;45.50;21.83;;;;;;;3.00;100.00;101763.88;4767181;61;1141001;-73
2024/03/06 22:15:42;;;;;;;48.13;20.80;;;;;;;2.94;100.00;101765.33;4724896;61;1140995;-75
2024/03/06 22:20:50;;;;;;;44.27;18.97;;;;;;;2.83;100.00;101758.23;4697569;60;1140761;-74
2024/03/06 22:25:55;;;;;;;39.40;18.93;;;;;;;2.73;100.00;101767.21;4767311;60;1140791;-72
2024/03/06 22:31:02;;;;;;;36.47;17.70;;;;;;;2.64;100.00;101776.56;4709296;60;1141162;-72
2024/03/06 22:36:08;;;;;;;36.00;17.65;;;;;;;2.59;100.00;101776.70;4690172;60;1141077;-72
2024/03/06 22:41:22;;;;;;;35.87;17.57;;;;;;;2.56;100.00;101778.07;4732827;60;1140935;-74